Pagrindinis puslapis
METAR-TAF:

METAR-TAF

Oro uostai :

San Salvador de Chuchujus, Argentina

platuma: 24-23S, ilguma: 065-05W, Aukštis: 921 m

Dabartinis oras

Ataskaita buvo paskelbta 42 minutes, ne 16:00 UTC
Vėjas 4 kt iš Rytų
Temperatūra 32°C
Drėgmė 24%
Slėgis 1005 hPa
Matomumas 10 km arba daugiau
nėra debesų žemiau 1500 m ir nėra kamuolinių lietaus debesų

METAR: SASJ 151600Z 09004KT CAVOK 32/09 Q1005

Laikas: 13:42 (16:42 UTC)

Prognozė

Ataskaita buvo paskelbta 5 valandos ir 42 minutes, ne 11:00 UTC
Prognozė galioja nuo 15 metu 12 UTC su 16 metu 12 UTC
Vėjas 10 kt iš Šiaurės Vakarų
Matomumas 10 km arba daugiau
nėra debesų žemiau 1500 m ir nėra kamuolinių lietaus debesų
Tapsmas
nuo 15 metu 14 UTC su 15 metu 17 UTC
Vėjas 10 kt iš Šiaurės Rytų

TAF: SASJ 151100Z 1512/1612 32010KT CAVOK TX36/1518Z TN15/1610Z BECMG 1514/1517 05010KT

Orai ataskaitas ir orų prognozės (METAR, TAF).

turimą stotys yra geltonos ir raudonos taškus žemėlapyje.

Perkelti pele per norėdami pamatyti stoties vardą.

Tada spustelėkite, norėdami matyti oro stebėjimo ir prognozės.

Norėdami pakeisti žemėlapį: spustelėkite ant žalios mygtukų su juodo kryžiaus žemyn,; žalią mygtuką su brūkšneliu, jei norite nutolinti; arba žalių rodyklių gretimoms žemėlapius.


METAR-TAF: